Sebastián Pérez

Olheiro - River Plate
23 Abr 2028
Domingo
Processo

Personalidade

Adaptabilidade (11) Ambição (20) Controvérsia (2) Lealdade (11) Pressão (5) Profissionalismo (18) Espírito Esportivo (15) Temperamento (11)

Perfil

Estilo de Treinamento Democrático
Licença Continental Pro
Determinação 14
Gestão de Pessoas 9
Motivação 17
Disciplina 14
Satisfação no Trabalho
100%
Fadiga
0%
Função Olheiro
Salário 86.0K p/s
Contrato 14.03.2030

Desempenho

Comportamento Bom
Eficácia do Treinamento
55%
Desenvolvimento do Jogador
60%
Prevenção de Lesões
35%
Implementação Tática
60%

Eventos Recentes

Participou de uma reunião de recrutamento agora
Recomendou um alvo de transferência agora
Recomendou um alvo de transferência agora
Recomendou um alvo de transferência agora
Avaliou um jogador agora
Avaliou um jogador agora
Avaliou um jogador 7d atrás
Avaliou um jogador 7d atrás

Monitorando agora

76
Jogador Clube Status Habilidade Confiança Observado Última observação Último voto
Shea Charles Southampton Ativo 147 / 145 40% 3 21.04.2028 -
André Wolverhampton Ativo 153 / 154 40% 1 21.04.2028 -
Diogo Dalot Manchester United Ativo 154 / 153 40% 1 21.04.2028 -
Bafodé Diakité Plymouth Argyle Ativo 148 / 147 40% 2 20.04.2028 -
Pedro Porro Tottenham Ativo 158 / 154 40% 2 20.04.2028 -
Nicolás Domínguez Cardiff City Ativo 149 / 150 40% 1 20.04.2028 -
Leandro Ciccolini Gimnasia y Esgrima Ativo 121 / 121 56% 2 / 2m 19.04.2028 -
Callum Brittain Middlesbrough Ativo 137 / 136 40% 2 19.04.2028 -
Matteo Ruggeri Middlesbrough Ativo 157 / 155 40% 2 19.04.2028 -
Danilo Ruiz Díaz Agropecuario Argentino Ativo 116 / 116 30% 1 / 1m 19.04.2028 -
Alejo Medina Agropecuario Argentino Ativo 110 / 113 30% 1 / 1m 19.04.2028 -
Ezequiel Almirón Estudiantes Ativo 117 / 117 30% 1 / 1m 19.04.2028 -
Bautista Carboni Defensores Unidos Ativo 111 / 116 30% 1 / 1m 19.04.2028 -
Frank Bogado Atlanta Ativo 91 / 96 30% 1 / 1m 19.04.2028 -
Matías Bergara Nueva Chicago Ativo 117 / 120 30% 1 / 1m 19.04.2028 -
Patricio Moyano Defensores Ativo 122 / 125 30% 1 / 1m 19.04.2028 -
Tobías Cervera Gimnasia y Esgrima Ativo 127 / 127 52% 1 / 1m 19.04.2028 -
Xaver Schlager Nottingham Forest Ativo 156 / 156 40% 1 19.04.2028 -
Óscar Mingueza Crystal Palace Ativo 157 / 155 40% 1 18.04.2028 -
Youri Tielemans Manchester United Ativo 166 / 165 40% 1 18.04.2028 -
Adrien Truffert Bournemouth Ativo 156 / 154 40% 1 13.04.2028 -
Max Bird Birmingham Ativo 139 / 136 40% 1 13.04.2028 -
Pervis Estupiñán AC Milan Ativo 152 / 148 40% 1 13.04.2028 -
Pablo Ibañez Alavés Ativo 136 / 133 40% 1 12.04.2028 -
Adam Wharton Crystal Palace Ativo 160 / 160 40% 1 12.04.2028 -
Boubacar Kamara Aston Villa Ativo 168 / 168 40% 2 11.04.2028 -
Alex Scott Bournemouth Ativo 157 / 156 40% 1 11.04.2028 -
Moisés Caicedo Chelsea Ativo 174 / 171 40% 2 09.04.2028 -
Matteo Prati Cagliari Ativo 139 / 142 40% 1 09.04.2028 -
Joe Rodon Blackburn Rovers Ativo 145 / 146 40% 1 09.04.2028 -
Gerard Martín Barcelona Ativo 157 / 153 40% 2 31.03.2028 -
Neco Williams Wrexham Ativo 152 / 146 40% 1 31.03.2028 -
Mateu Morey Girona Ativo 139 / 136 40% 1 31.03.2028 -
Tino Livramento Newcastle United Ativo 163 / 164 40% 1 29.03.2028 -
Welington Southampton Ativo 138 / 134 40% 1 29.03.2028 -
Nico González Newcastle United Ativo 166 / 162 40% 1 24.03.2028 -
Nathan Collins Brentford Ativo 154 / 150 40% 1 24.03.2028 -
Ethan Galbraith Swansea City Ativo 141 / 136 40% 3 19.03.2028 -
Sandro Tonali Tottenham Ativo 176 / 176 40% 1 19.03.2028 -
Youssouf Fofana AC Milan Ativo 158 / 159 40% 1 18.03.2028 -
Nicolas Madsen Queens Park Rangers Ativo 136 / 134 40% 1 18.03.2028 -
Exequiel Palacios Lazio Ativo 162 / 162 40% 1 17.03.2028 -
Quinten Timber Crystal Palace Ativo 157 / 153 40% 1 16.03.2028 -
Agustín Medina Lanús Perdido 116 / 123 95% 1 20.12.2027 -
Tomás Parmo Independiente Ativo 119 / 128 95% 1 01.12.2027 Aprovar
Joaquín Ardaiz Argentinos Juniors Ativo 128 / 128 66% 2 / 2m 09.06.2027 Aprovar
Hernán Perrone Almirante Brown Ativo 108 / 108 42% 1 / 1m 09.06.2027 -
Jeremías Merlo Gimnasia La Plata Ativo 119 / 131 95% 1 02.06.2027 Aprovar
Maduka Okoye Udinese Ativo 141 / 141 40% 1 31.05.2027 -
Gastón Espósito Güemes Ativo 112 / 112 42% 1 / 1m 21.04.2027 -
Juan Mendoza Güemes Ativo 107 / 107 42% 1 / 1m 21.04.2027 -
Miguel Ceccotti Güemes Ativo 111 / 111 30% 1 / 1m 21.04.2027 -
Mateo Díaz Chaves Argentinos Juniors Ativo 110 / 113 42% 1 / 1m 21.04.2027 -
Juan Cruz Cerrudo Rosario Central Ativo 111 / 114 30% 1 / 1m 21.04.2027 -
Mateo Levato Universidad de Concepcion Ativo 111 / 111 52% 1 / 1m 21.04.2027 -
Maximiliano Badur Morón Ativo 107 / 110 30% 1 / 1m 21.04.2027 -
Lautaro Montani Defensores Unidos Ativo 112 / 112 52% 1 / 1m 21.04.2027 -
Bautista González Defensores Ativo 92 / 97 30% 1 / 1m 21.04.2027 -
Giorgio Scalvini Atalanta Perdido 148 / 149 40% 1 30.11.2026 -
Valentín Moreno Tigre Ativo 121 / 124 30% 1 / 1m 28.10.2026 -
Tijjani Reijnders Al-Qadisiyah Ativo 159 / 159 40% 1 30.09.2026 -
Sebastián Medina Tigre Ativo 121 / 121 42% 1 / 1m 09.09.2026 -
Alan Sosa Tigre Ativo 120 / 120 42% 1 / 1m 26.08.2026 -
Blas Armoa Gimnasia y Esgrima Ativo 122 / 122 30% 1 / 1m 26.08.2026 -
Ignacio Arce Deportivo Riestra Ativo 134 / 134 30% 1 / 1m 26.08.2026 -
Mateo Muñoz Talleres Ativo 92 / 95 30% 1 / 1m 19.08.2026 -
Lautaro Bursich Talleres Ativo 101 / 104 30% 1 / 1m 19.08.2026 -
Alexis González Los Andes Ativo 80 / 85 30% 1 / 1m 19.08.2026 -
Bartolomé Velásquez Patronato Ativo 109 / 112 42% 1 / 1m 19.08.2026 -
Santino Bizai Patronato Ativo 90 / 95 30% 1 / 1m 19.08.2026 -
Tiziano Favotti Colón Ativo 98 / 103 52% 1 / 1m 19.08.2026 -
Nicolás Nagel Colón Ativo 94 / 99 30% 1 / 1m 19.08.2026 -
Enzo Barrenechea Benfica Ativo 147 / 150 40% 1 08.08.2026 -
Matvey Kislyak CSKA Moscow Ativo 134 / 139 40% 1 07.08.2026 -
Matty Cash Aston Villa Ativo 149 / 152 40% 1 02.08.2026 -
Tyler Adams Bournemouth Ativo 149 / 149 40% 1 02.08.2026 -